sensor_id;sensor_type;location;lat;lon;timestamp;pressure;altitude;pressure_sealevel;temperature
8533;BMP280;4304;53.876;10.662;2023-04-26T00:01:01;101310.78;;;3.26
8533;BMP280;4304;53.876;10.662;2023-04-26T00:03:28;101313.19;;;3.31
8533;BMP280;4304;53.876;10.662;2023-04-26T00:05:54;101316.75;;;3.27
8533;BMP280;4304;53.876;10.662;2023-04-26T00:08:19;101325.31;;;3.26
8533;BMP280;4304;53.876;10.662;2023-04-26T00:10:45;101327.13;;;3.22
8533;BMP280;4304;53.876;10.662;2023-04-26T00:13:10;101343.41;;;3.23
8533;BMP280;4304;53.876;10.662;2023-04-26T00:15:35;101338.53;;;3.12
8533;BMP280;4304;53.876;10.662;2023-04-26T00:18:01;101344.59;;;3.11
8533;BMP280;4304;53.876;10.662;2023-04-26T00:20:26;101341.22;;;3.08
8533;BMP280;4304;53.876;10.662;2023-04-26T00:22:51;101346.47;;;3.05
8533;BMP280;4304;53.876;10.662;2023-04-26T00:25:17;101343.00;;;3.06
8533;BMP280;4304;53.876;10.662;2023-04-26T00:27:42;101344.78;;;3.04
8533;BMP280;4304;53.876;10.662;2023-04-26T00:30:08;101344.69;;;3.07
8533;BMP280;4304;53.876;10.662;2023-04-26T00:32:34;101349.91;;;3.04
8533;BMP280;4304;53.876;10.662;2023-04-26T00:35:02;101343.97;;;3.02
8533;BMP280;4304;53.876;10.662;2023-04-26T00:37:27;101351.41;;;3.11
8533;BMP280;4304;53.876;10.662;2023-04-26T00:39:53;101342.31;;;2.99
8533;BMP280;4304;53.876;10.662;2023-04-26T00:42:18;101340.66;;;2.98
8533;BMP280;4304;53.876;10.662;2023-04-26T00:44:43;101343.16;;;3.01
8533;BMP280;4304;53.876;10.662;2023-04-26T00:47:09;101324.13;;;3.08
8533;BMP280;4304;53.876;10.662;2023-04-26T00:49:35;101334.31;;;3.11
8533;BMP280;4304;53.876;10.662;2023-04-26T00:52:01;101332.41;;;3.18
8533;BMP280;4304;53.876;10.662;2023-04-26T00:54:27;101334.16;;;3.16
8533;BMP280;4304;53.876;10.662;2023-04-26T00:56:53;101328.88;;;3.22
8533;BMP280;4304;53.876;10.662;2023-04-26T00:59:19;101335.06;;;3.15
8533;BMP280;4304;53.876;10.662;2023-04-26T01:01:44;101335.34;;;3.04
8533;BMP280;4304;53.876;10.662;2023-04-26T01:04:11;101328.59;;;3.02
8533;BMP280;4304;53.876;10.662;2023-04-26T01:06:37;101338.06;;;3.00
8533;BMP280;4304;53.876;10.662;2023-04-26T01:09:04;101340.66;;;2.98
8533;BMP280;4304;53.876;10.662;2023-04-26T01:11:36;101345.75;;;3.00
8533;BMP280;4304;53.876;10.662;2023-04-26T01:14:04;101347.47;;;2.99
8533;BMP280;4304;53.876;10.662;2023-04-26T01:16:29;101348.44;;;2.96
8533;BMP280;4304;53.876;10.662;2023-04-26T01:18:55;101352.59;;;2.99
8533;BMP280;4304;53.876;10.662;2023-04-26T01:21:21;101351.91;;;2.93
8533;BMP280;4304;53.876;10.662;2023-04-26T01:23:50;101338.38;;;2.88
8533;BMP280;4304;53.876;10.662;2023-04-26T01:26:16;101346.16;;;2.85
8533;BMP280;4304;53.876;10.662;2023-04-26T01:28:41;101348.63;;;2.88
8533;BMP280;4304;53.876;10.662;2023-04-26T01:31:07;101347.06;;;2.83
8533;BMP280;4304;53.876;10.662;2023-04-26T01:33:32;101350.53;;;2.82
8533;BMP280;4304;53.876;10.662;2023-04-26T01:35:58;101359.22;;;2.76
8533;BMP280;4304;53.876;10.662;2023-04-26T01:38:23;101369.31;;;2.84
8533;BMP280;4304;53.876;10.662;2023-04-26T01:40:48;101362.59;;;2.78
8533;BMP280;4304;53.876;10.662;2023-04-26T01:43:14;101367.00;;;2.73
8533;BMP280;4304;53.876;10.662;2023-04-26T01:45:39;101355.03;;;2.74
8533;BMP280;4304;53.876;10.662;2023-04-26T01:48:05;101366.84;;;2.79
8533;BMP280;4304;53.876;10.662;2023-04-26T01:50:31;101371.28;;;2.73
8533;BMP280;4304;53.876;10.662;2023-04-26T01:52:57;101366.13;;;2.74
8533;BMP280;4304;53.876;10.662;2023-04-26T01:55:22;101364.53;;;2.70
8533;BMP280;4304;53.876;10.662;2023-04-26T01:57:47;101358.53;;;2.70
8533;BMP280;4304;53.876;10.662;2023-04-26T02:00:13;101363.81;;;2.65
8533;BMP280;4304;53.876;10.662;2023-04-26T02:02:38;101366.41;;;2.64
8533;BMP280;4304;53.876;10.662;2023-04-26T02:05:04;101368.94;;;2.65
8533;BMP280;4304;53.876;10.662;2023-04-26T02:07:29;101364.53;;;2.70
8533;BMP280;4304;53.876;10.662;2023-04-26T02:09:54;101374.00;;;2.67
8533;BMP280;4304;53.876;10.662;2023-04-26T02:12:20;101373.94;;;2.70
8533;BMP280;4304;53.876;10.662;2023-04-26T02:14:45;101363.91;;;2.61
8533;BMP280;4304;53.876;10.662;2023-04-26T02:17:11;101379.13;;;2.67
8533;BMP280;4304;53.876;10.662;2023-04-26T02:19:36;101365.69;;;2.59
8533;BMP280;4304;53.876;10.662;2023-04-26T02:22:04;101368.25;;;2.59
8533;BMP280;4304;53.876;10.662;2023-04-26T02:24:30;101371.63;;;2.61
8533;BMP280;4304;53.876;10.662;2023-04-26T02:26:55;101374.88;;;2.67
8533;BMP280;4304;53.876;10.662;2023-04-26T02:29:24;101381.06;;;2.59
8533;BMP280;4304;53.876;10.662;2023-04-26T02:31:50;101367.41;;;2.57
8533;BMP280;4304;53.876;10.662;2023-04-26T02:34:15;101382.66;;;2.63
8533;BMP280;4304;53.876;10.662;2023-04-26T02:36:41;101374.31;;;2.55
8533;BMP280;4304;53.876;10.662;2023-04-26T02:39:06;101377.66;;;2.58
8533;BMP280;4304;53.876;10.662;2023-04-26T02:41:31;101380.22;;;2.58
8533;BMP280;4304;53.876;10.662;2023-04-26T02:43:57;101376.13;;;2.52
8533;BMP280;4304;53.876;10.662;2023-04-26T02:46:23;101376.19;;;2.49
8533;BMP280;4304;53.876;10.662;2023-04-26T02:48:48;101385.63;;;2.48
8533;BMP280;4304;53.876;10.662;2023-04-26T02:51:13;101377.00;;;2.51
8533;BMP280;4304;53.876;10.662;2023-04-26T02:53:40;101382.13;;;2.51
8533;BMP280;4304;53.876;10.662;2023-04-26T02:56:05;101374.59;;;2.45
8533;BMP280;4304;53.876;10.662;2023-04-26T02:58:31;101366.16;;;2.40
8533;BMP280;4304;53.876;10.662;2023-04-26T03:00:57;101376.44;;;2.40
8533;BMP280;4304;53.876;10.662;2023-04-26T03:03:22;101374.56;;;2.46
8533;BMP280;4304;53.876;10.662;2023-04-26T03:05:48;101382.91;;;2.54
8533;BMP280;4304;53.876;10.662;2023-04-26T03:08:14;101376.19;;;2.49
8533;BMP280;4304;53.876;10.662;2023-04-26T03:10:39;101382.28;;;2.45
8533;BMP280;4304;53.876;10.662;2023-04-26T03:13:04;101375.59;;;2.39
8533;BMP280;4304;53.876;10.662;2023-04-26T03:15:30;101371.44;;;2.34
8533;BMP280;4304;53.876;10.662;2023-04-26T03:17:55;101368.16;;;2.27
8533;BMP280;4304;53.876;10.662;2023-04-26T03:20:22;101367.97;;;2.36
8533;BMP280;4304;53.876;10.662;2023-04-26T03:22:48;101376.59;;;2.32
8533;BMP280;4304;53.876;10.662;2023-04-26T03:25:14;101375.75;;;2.32
8533;BMP280;4304;53.876;10.662;2023-04-26T03:27:40;101372.31;;;2.34
8533;BMP280;4304;53.876;10.662;2023-04-26T03:30:06;101370.53;;;2.36
8533;BMP280;4304;53.876;10.662;2023-04-26T03:32:31;101376.47;;;2.38
8533;BMP280;4304;53.876;10.662;2023-04-26T03:34:57;101371.44;;;2.34
8533;BMP280;4304;53.876;10.662;2023-04-26T03:37:22;101376.44;;;2.40
8533;BMP280;4304;53.876;10.662;2023-04-26T03:39:48;101376.56;;;2.34
8533;BMP280;4304;53.876;10.662;2023-04-26T03:42:14;101379.16;;;2.32
8533;BMP280;4304;53.876;10.662;2023-04-26T03:44:40;101381.72;;;2.32
8533;BMP280;4304;53.876;10.662;2023-04-26T03:47:05;101369.84;;;2.30
8533;BMP280;4304;53.876;10.662;2023-04-26T03:49:31;101375.75;;;2.32
8533;BMP280;4304;53.876;10.662;2023-04-26T03:51:56;101378.28;;;2.33
8533;BMP280;4304;53.876;10.662;2023-04-26T03:54:21;101375.66;;;2.36
8533;BMP280;4304;53.876;10.662;2023-04-26T03:56:47;101384.13;;;2.40
8533;BMP280;4304;53.876;10.662;2023-04-26T03:59:12;101378.28;;;2.33
8533;BMP280;4304;53.876;10.662;2023-04-26T04:01:37;101380.06;;;2.31
8533;BMP280;4304;53.876;10.662;2023-04-26T04:04:03;101379.13;;;2.34
8533;BMP280;4304;53.876;10.662;2023-04-26T04:06:28;101399.56;;;2.37
8533;BMP280;4304;53.876;10.662;2023-04-26T04:08:53;101386.78;;;2.35
8533;BMP280;4304;53.876;10.662;2023-04-26T04:11:20;101398.47;;;2.47
8533;BMP280;4304;53.876;10.662;2023-04-26T04:13:45;101402.03;;;2.41
8533;BMP280;4304;53.876;10.662;2023-04-26T04:16:11;101407.09;;;2.44
8533;BMP280;4304;53.876;10.662;2023-04-26T04:18:36;101403.63;;;2.45
8533;BMP280;4304;53.876;10.662;2023-04-26T04:21:01;101409.56;;;2.47
8533;BMP280;4304;53.876;10.662;2023-04-26T04:23:27;101406.03;;;2.53
8533;BMP280;4304;53.876;10.662;2023-04-26T04:25:52;101412.75;;;2.56
8533;BMP280;4304;53.876;10.662;2023-04-26T04:28:18;101410.09;;;2.61
8533;BMP280;4304;53.876;10.662;2023-04-26T04:30:43;101409.25;;;2.60
8533;BMP280;4304;53.876;10.662;2023-04-26T04:33:10;101412.50;;;2.67
8533;BMP280;4304;53.876;10.662;2023-04-26T04:35:36;101414.84;;;2.76
8533;BMP280;4304;53.876;10.662;2023-04-26T04:38:01;101416.41;;;2.81
8533;BMP280;4304;53.876;10.662;2023-04-26T04:40:27;101423.63;;;2.99
8533;BMP280;4304;53.876;10.662;2023-04-26T04:42:52;101420.19;;;3.00
8533;BMP280;4304;53.876;10.662;2023-04-26T04:45:19;101414.59;;;3.18
8533;BMP280;4304;53.876;10.662;2023-04-26T04:47:44;101409.63;;;3.40
8533;BMP280;4304;53.876;10.662;2023-04-26T04:50:10;101418.53;;;3.59
8533;BMP280;4304;53.876;10.662;2023-04-26T04:52:35;101412.53;;;3.87
8533;BMP280;4304;53.876;10.662;2023-04-26T04:55:01;101411.19;;;4.30
8533;BMP280;4304;53.876;10.662;2023-04-26T04:57:27;101432.69;;;4.55
8533;BMP280;4304;53.876;10.662;2023-04-26T04:59:52;101412.72;;;4.87
8533;BMP280;4304;53.876;10.662;2023-04-26T05:02:18;101416.44;;;5.27
8533;BMP280;4304;53.876;10.662;2023-04-26T05:04:43;101413.78;;;5.53
8533;BMP280;4304;53.876;10.662;2023-04-26T05:07:09;101407.19;;;5.69
8533;BMP280;4304;53.876;10.662;2023-04-26T05:09:34;101415.38;;;5.80
8533;BMP280;4304;53.876;10.662;2023-04-26T05:12:01;101417.97;;;5.80
8533;BMP280;4304;53.876;10.662;2023-04-26T05:14:28;101416.28;;;5.32
8533;BMP280;4304;53.876;10.662;2023-04-26T05:16:53;101414.09;;;4.97
8533;BMP280;4304;53.876;10.662;2023-04-26T05:19:19;101417.28;;;4.79
8533;BMP280;4304;53.876;10.662;2023-04-26T05:21:44;101422.47;;;4.78
8533;BMP280;4304;53.876;10.662;2023-04-26T05:24:09;101426.38;;;4.89
8533;BMP280;4304;53.876;10.662;2023-04-26T05:26:35;101423.28;;;5.52
8533;BMP280;4304;53.876;10.662;2023-04-26T05:29:00;101421.63;;;6.18
8533;BMP280;4304;53.876;10.662;2023-04-26T05:31:26;101435.78;;;6.51
8533;BMP280;4304;53.876;10.662;2023-04-26T05:33:51;101437.72;;;6.87
8533;BMP280;4304;53.876;10.662;2023-04-26T05:36:17;101443.31;;;7.18
8533;BMP280;4304;53.876;10.662;2023-04-26T05:38:42;101437.41;;;7.54
8533;BMP280;4304;53.876;10.662;2023-04-26T05:41:07;101442.53;;;7.73
8533;BMP280;4304;53.876;10.662;2023-04-26T05:43:33;101444.22;;;7.55
8533;BMP280;4304;53.876;10.662;2023-04-26T05:45:58;101442.19;;;7.23
8533;BMP280;4304;53.876;10.662;2023-04-26T05:48:24;101444.72;;;7.24
8533;BMP280;4304;53.876;10.662;2023-04-26T05:50:50;101449.16;;;7.41
8533;BMP280;4304;53.876;10.662;2023-04-26T05:53:16;101463.56;;;7.46
8533;BMP280;4304;53.876;10.662;2023-04-26T05:55:43;101446.94;;;7.71
8533;BMP280;4304;53.876;10.662;2023-04-26T05:58:08;101468.41;;;8.10
8533;BMP280;4304;53.876;10.662;2023-04-26T06:00:34;101471.00;;;8.65
8533;BMP280;4304;53.876;10.662;2023-04-26T06:02:59;101497.28;;;8.74
8533;BMP280;4304;53.876;10.662;2023-04-26T06:05:25;101484.72;;;8.84
8533;BMP280;4304;53.876;10.662;2023-04-26T06:07:50;101474.28;;;9.02
8533;BMP280;4304;53.876;10.662;2023-04-26T06:10:16;101472.38;;;8.89
8533;BMP280;4304;53.876;10.662;2023-04-26T06:12:41;101493.97;;;9.23
8533;BMP280;4304;53.876;10.662;2023-04-26T06:15:07;101512.34;;;9.69
8533;BMP280;4304;53.876;10.662;2023-04-26T06:17:32;101477.78;;;9.68
8533;BMP280;4304;53.876;10.662;2023-04-26T06:19:58;101505.78;;;10.26
8533;BMP280;4304;53.876;10.662;2023-04-26T06:22:23;101541.94;;;10.76
8533;BMP280;4304;53.876;10.662;2023-04-26T06:24:48;101536.91;;;11.18
8533;BMP280;4304;53.876;10.662;2023-04-26T06:27:14;101553.22;;;11.06
8533;BMP280;4304;53.876;10.662;2023-04-26T06:29:39;101539.66;;;11.30
8533;BMP280;4304;53.876;10.662;2023-04-26T06:32:05;101526.16;;;10.95
8533;BMP280;4304;53.876;10.662;2023-04-26T06:34:31;101521.28;;;10.89
8533;BMP280;4304;53.876;10.662;2023-04-26T06:36:56;101518.34;;;10.95
8533;BMP280;4304;53.876;10.662;2023-04-26T06:39:21;101542.25;;;10.70
8533;BMP280;4304;53.876;10.662;2023-04-26T06:41:47;101533.72;;;10.68
8533;BMP280;4304;53.876;10.662;2023-04-26T06:44:12;101509.84;;;10.47
8533;BMP280;4304;53.876;10.662;2023-04-26T06:46:37;101542.44;;;10.83
8533;BMP280;4304;53.876;10.662;2023-04-26T06:49:03;101526.16;;;10.95
8533;BMP280;4304;53.876;10.662;2023-04-26T06:51:28;101575.38;;;11.42
8533;BMP280;4304;53.876;10.662;2023-04-26T06:53:54;101585.56;;;11.90
8533;BMP280;4304;53.876;10.662;2023-04-26T06:56:19;101620.09;;;11.93
8533;BMP280;4304;53.876;10.662;2023-04-26T06:59:00;101600.03;;;11.66
8533;BMP280;4304;53.876;10.662;2023-04-26T07:01:29;101557.50;;;11.36
8533;BMP280;4304;53.876;10.662;2023-04-26T07:03:57;101562.09;;;11.62
8533;BMP280;4304;53.876;10.662;2023-04-26T07:06:24;101562.44;;;11.27
8533;BMP280;4304;53.876;10.662;2023-04-26T07:08:50;101596.19;;;10.98
8533;BMP280;4304;53.876;10.662;2023-04-26T07:11:15;101567.88;;;11.07
8533;BMP280;4304;53.876;10.662;2023-04-26T07:13:40;101579.75;;;11.42
8533;BMP280;4304;53.876;10.662;2023-04-26T07:16:06;101577.06;;;11.58
8533;BMP280;4304;53.876;10.662;2023-04-26T07:18:31;101547.28;;;10.89
8533;BMP280;4304;53.876;10.662;2023-04-26T07:20:56;101556.94;;;10.87
8533;BMP280;4304;53.876;10.662;2023-04-26T07:23:22;101568.56;;;10.95
8533;BMP280;4304;53.876;10.662;2023-04-26T07:25:47;101579.94;;;11.23
8533;BMP280;4304;53.876;10.662;2023-04-26T07:28:13;101569.41;;;11.55
8533;BMP280;4304;53.876;10.662;2023-04-26T07:30:38;101610.09;;;11.72
8533;BMP280;4304;53.876;10.662;2023-04-26T07:33:04;101634.94;;;11.77
8533;BMP280;4304;53.876;10.662;2023-04-26T07:35:30;101634.00;;;12.07
8533;BMP280;4304;53.876;10.662;2023-04-26T07:37:55;101627.91;;;11.93
8533;BMP280;4304;53.876;10.662;2023-04-26T07:40:21;101669.84;;;11.89
8533;BMP280;4304;53.876;10.662;2023-04-26T07:42:48;101640.09;;;11.93
8533;BMP280;4304;53.876;10.662;2023-04-26T07:45:14;101623.66;;;12.06
8533;BMP280;4304;53.876;10.662;2023-04-26T07:47:40;101602.41;;;11.98
8533;BMP280;4304;53.876;10.662;2023-04-26T07:50:05;101545.63;;;11.17
8533;BMP280;4304;53.876;10.662;2023-04-26T07:52:31;101588.41;;;11.42
8533;BMP280;4304;53.876;10.662;2023-04-26T07:54:56;101624.09;;;11.40
8533;BMP280;4304;53.876;10.662;2023-04-26T07:57:21;101659.44;;;11.29
8533;BMP280;4304;53.876;10.662;2023-04-26T07:59:47;101631.19;;;11.07
8533;BMP280;4304;53.876;10.662;2023-04-26T08:02:12;101594.44;;;10.83
8533;BMP280;4304;53.876;10.662;2023-04-26T08:04:37;101603.53;;;10.44
8533;BMP280;4304;53.876;10.662;2023-04-26T08:07:03;101598.09;;;10.48
8533;BMP280;4304;53.876;10.662;2023-04-26T08:09:28;101626.72;;;10.94
8533;BMP280;4304;53.876;10.662;2023-04-26T08:11:55;101673.47;;;11.57
8533;BMP280;4304;53.876;10.662;2023-04-26T08:14:20;101658.59;;;12.02
8533;BMP280;4304;53.876;10.662;2023-04-26T08:16:45;101713.22;;;11.90
8533;BMP280;4304;53.876;10.662;2023-04-26T08:19:11;101693.50;;;11.70
8533;BMP280;4304;53.876;10.662;2023-04-26T08:21:36;101707.53;;;11.37
8533;BMP280;4304;53.876;10.662;2023-04-26T08:24:02;101658.34;;;11.02
8533;BMP280;4304;53.876;10.662;2023-04-26T08:26:27;101642.97;;;11.28
8533;BMP280;4304;53.876;10.662;2023-04-26T08:28:53;101655.72;;;11.93
8533;BMP280;4304;53.876;10.662;2023-04-26T08:31:18;101681.16;;;12.03
8533;BMP280;4304;53.876;10.662;2023-04-26T08:33:44;101729.16;;;12.56
8533;BMP280;4304;53.876;10.662;2023-04-26T08:36:09;101724.50;;;12.61
8533;BMP280;4304;53.876;10.662;2023-04-26T08:38:34;101722.09;;;12.01
8533;BMP280;4304;53.876;10.662;2023-04-26T08:41:01;101654.50;;;11.24
8533;BMP280;4304;53.876;10.662;2023-04-26T08:43:27;101681.59;;;11.51
8533;BMP280;4304;53.876;10.662;2023-04-26T08:45:53;101685.03;;;11.67
8533;BMP280;4304;53.876;10.662;2023-04-26T08:48:19;101628.72;;;10.74
8533;BMP280;4304;53.876;10.662;2023-04-26T08:50:46;101628.63;;;10.60
8533;BMP280;4304;53.876;10.662;2023-04-26T08:53:15;101607.09;;;10.73
8533;BMP280;4304;53.876;10.662;2023-04-26T08:55:48;101649.63;;;11.18
8533;BMP280;4304;53.876;10.662;2023-04-26T08:58:13;101629.19;;;11.57
8533;BMP280;4304;53.876;10.662;2023-04-26T09:00:42;101652.41;;;11.75
8533;BMP280;4304;53.876;10.662;2023-04-26T09:03:07;101698.00;;;12.11
8533;BMP280;4304;53.876;10.662;2023-04-26T09:05:33;101682.84;;;12.32
8533;BMP280;4304;53.876;10.662;2023-04-26T09:08:00;101759.63;;;12.12
8533;BMP280;4304;53.876;10.662;2023-04-26T09:10:26;101813.28;;;12.30
8533;BMP280;4304;53.876;10.662;2023-04-26T09:12:52;101807.69;;;12.51
8533;BMP280;4304;53.876;10.662;2023-04-26T09:15:19;101766.19;;;12.04
8533;BMP280;4304;53.876;10.662;2023-04-26T09:17:45;101756.84;;;12.15
8533;BMP280;4304;53.876;10.662;2023-04-26T09:20:29;101728.59;;;12.37
8533;BMP280;4304;53.876;10.662;2023-04-26T09:23:06;101737.59;;;12.75
8533;BMP280;4304;53.876;10.662;2023-04-26T09:25:32;101702.19;;;12.98
8533;BMP280;4304;53.876;10.662;2023-04-26T09:27:58;101730.22;;;12.67
8533;BMP280;4304;53.876;10.662;2023-04-26T09:30:25;101666.56;;;13.25
8533;BMP280;4304;53.876;10.662;2023-04-26T09:32:59;101760.09;;;12.76
8533;BMP280;4304;53.876;10.662;2023-04-26T09:40:30;101812.00;;;12.37
8533;BMP280;4304;53.876;10.662;2023-04-26T09:42:56;101794.75;;;12.64
8533;BMP280;4304;53.876;10.662;2023-04-26T09:45:23;101798.81;;;12.97
8533;BMP280;4304;53.876;10.662;2023-04-26T09:47:48;101789.41;;;13.08
8533;BMP280;4304;53.876;10.662;2023-04-26T09:50:24;101845.34;;;13.04
8533;BMP280;4304;53.876;10.662;2023-04-26T09:52:50;101827.94;;;13.19
8533;BMP280;4304;53.876;10.662;2023-04-26T09:55:28;101806.75;;;13.09
8533;BMP280;4304;53.876;10.662;2023-04-26T09:57:57;101792.59;;;13.27
8533;BMP280;4304;53.876;10.662;2023-04-26T10:00:25;101764.78;;;13.26
8533;BMP280;4304;53.876;10.662;2023-04-26T10:02:54;101811.13;;;13.36
8533;BMP280;4304;53.876;10.662;2023-04-26T10:05:20;101763.03;;;13.13
8533;BMP280;4304;53.876;10.662;2023-04-26T10:07:46;101802.78;;;12.75
8533;BMP280;4304;53.876;10.662;2023-04-26T10:10:12;101761.19;;;12.44
8533;BMP280;4304;53.876;10.662;2023-04-26T10:12:40;101753.88;;;12.21
8533;BMP280;4304;53.876;10.662;2023-04-26T10:15:07;101776.88;;;12.72
8533;BMP280;4304;53.876;10.662;2023-04-26T10:17:33;101813.75;;;13.09
8533;BMP280;4304;53.876;10.662;2023-04-26T10:19:59;101769.59;;;13.60
8533;BMP280;4304;53.876;10.662;2023-04-26T10:22:30;101696.31;;;13.49
8533;BMP280;4304;53.876;10.662;2023-04-26T10:24:58;101725.50;;;13.94
8533;BMP280;4304;53.876;10.662;2023-04-26T10:30:08;101744.00;;;13.38
8533;BMP280;4304;53.876;10.662;2023-04-26T10:35:20;101581.94;;;11.92
8533;BMP280;4304;53.876;10.662;2023-04-26T10:45:34;101561.97;;;10.90
8533;BMP280;4304;53.876;10.662;2023-04-26T10:48:19;101563.41;;;10.80
8533;BMP280;4304;53.876;10.662;2023-04-26T10:56:09;101496.31;;;10.71
8533;BMP280;4304;53.876;10.662;2023-04-26T10:58:39;101510.41;;;10.67
8533;BMP280;4304;53.876;10.662;2023-04-26T11:01:06;101532.78;;;11.29
8533;BMP280;4304;53.876;10.662;2023-04-26T11:03:32;101586.78;;;11.84
8533;BMP280;4304;53.876;10.662;2023-04-26T11:05:58;101609.53;;;12.24
8533;BMP280;4304;53.876;10.662;2023-04-26T11:13:40;101515.06;;;11.93
8533;BMP280;4304;53.876;10.662;2023-04-26T11:16:10;101495.13;;;11.21
8533;BMP280;4304;53.876;10.662;2023-04-26T11:18:38;101503.94;;;11.48
8533;BMP280;4304;53.876;10.662;2023-04-26T11:21:05;101582.78;;;11.93
8533;BMP280;4304;53.876;10.662;2023-04-26T11:23:31;101601.88;;;12.21
8533;BMP280;4304;53.876;10.662;2023-04-26T11:25:58;101678.69;;;12.43
8533;BMP280;4304;53.876;10.662;2023-04-26T11:28:23;101684.56;;;13.02
8533;BMP280;4304;53.876;10.662;2023-04-26T11:30:49;101690.78;;;13.13
8533;BMP280;4304;53.876;10.662;2023-04-26T11:33:16;101689.81;;;13.42
8533;BMP280;4304;53.876;10.662;2023-04-26T11:35:50;101698.75;;;13.38
8533;BMP280;4304;53.876;10.662;2023-04-26T11:38:16;101689.16;;;13.38
8533;BMP280;4304;53.876;10.662;2023-04-26T11:40:42;101728.47;;;13.09
8533;BMP280;4304;53.876;10.662;2023-04-26T11:43:09;101677.25;;;12.10
8533;BMP280;4304;53.876;10.662;2023-04-26T11:45:36;101614.69;;;11.53
8533;BMP280;4304;53.876;10.662;2023-04-26T11:48:06;101483.41;;;10.69
8533;BMP280;4304;53.876;10.662;2023-04-26T11:50:33;101439.09;;;8.81
8533;BMP280;4304;53.876;10.662;2023-04-26T11:53:00;101522.16;;;8.42
8533;BMP280;4304;53.876;10.662;2023-04-26T11:55:30;101538.72;;;8.21
8533;BMP280;4304;53.876;10.662;2023-04-26T11:57:59;101540.38;;;8.02
8533;BMP280;4304;53.876;10.662;2023-04-26T12:00:25;101563.59;;;7.85
8533;BMP280;4304;53.876;10.662;2023-04-26T12:02:52;101564.03;;;7.95
8533;BMP280;4304;53.876;10.662;2023-04-26T12:05:28;101504.56;;;8.13
8533;BMP280;4304;53.876;10.662;2023-04-26T12:07:57;101531.84;;;8.20
8533;BMP280;4304;53.876;10.662;2023-04-26T12:10:34;101537.56;;;8.63
8533;BMP280;4304;53.876;10.662;2023-04-26T12:13:00;101525.53;;;8.97
8533;BMP280;4304;53.876;10.662;2023-04-26T12:15:30;101554.09;;;9.47
8533;BMP280;4304;53.876;10.662;2023-04-26T12:18:14;101532.09;;;9.71
8533;BMP280;4304;53.876;10.662;2023-04-26T12:20:41;101536.97;;;10.41
8533;BMP280;4304;53.876;10.662;2023-04-26T12:23:09;101522.91;;;11.20
8533;BMP280;4304;53.876;10.662;2023-04-26T12:25:37;101606.06;;;11.07
8533;BMP280;4304;53.876;10.662;2023-04-26T12:28:09;101585.47;;;10.73
8533;BMP280;4304;53.876;10.662;2023-04-26T12:30:37;101559.44;;;10.42
8533;BMP280;4304;53.876;10.662;2023-04-26T12:33:03;101566.13;;;10.46
8533;BMP280;4304;53.876;10.662;2023-04-26T12:35:29;101559.25;;;10.30
8533;BMP280;4304;53.876;10.662;2023-04-26T12:37:55;101597.09;;;10.19
8533;BMP280;4304;53.876;10.662;2023-04-26T12:40:22;101575.25;;;10.23
8533;BMP280;4304;53.876;10.662;2023-04-26T12:42:48;101662.47;;;10.26
8533;BMP280;4304;53.876;10.662;2023-04-26T12:45:17;101604.84;;;10.03
8533;BMP280;4304;53.876;10.662;2023-04-26T12:47:46;101607.75;;;10.14
8533;BMP280;4304;53.876;10.662;2023-04-26T12:50:12;101628.44;;;10.48
8533;BMP280;4304;53.876;10.662;2023-04-26T12:52:39;101581.34;;;10.54
8533;BMP280;4304;53.876;10.662;2023-04-26T12:55:06;101651.72;;;10.81
8533;BMP280;4304;53.876;10.662;2023-04-26T12:57:32;101614.66;;;10.78
8533;BMP280;4304;53.876;10.662;2023-04-26T12:59:58;101580.22;;;10.42
8533;BMP280;4304;53.876;10.662;2023-04-26T13:02:23;101597.16;;;10.34
8533;BMP280;4304;53.876;10.662;2023-04-26T13:04:49;101567.03;;;10.30
8533;BMP280;4304;53.876;10.662;2023-04-26T13:07:14;101634.78;;;10.42
8533;BMP280;4304;53.876;10.662;2023-04-26T13:09:40;101639.63;;;10.65
8533;BMP280;4304;53.876;10.662;2023-04-26T13:12:05;101699.56;;;10.94
8533;BMP280;4304;53.876;10.662;2023-04-26T13:14:31;101733.09;;;10.99
8533;BMP280;4304;53.876;10.662;2023-04-26T13:16:56;101725.28;;;10.83
8533;BMP280;4304;53.876;10.662;2023-04-26T13:19:22;101731.38;;;10.82
8533;BMP280;4304;53.876;10.662;2023-04-26T13:21:48;101756.25;;;10.88
8533;BMP280;4304;53.876;10.662;2023-04-26T13:24:13;101747.28;;;10.93
8533;BMP280;4304;53.876;10.662;2023-04-26T13:26:38;101703.16;;;11.07
8533;BMP280;4304;53.876;10.662;2023-04-26T13:29:04;101716.94;;;11.09
8533;BMP280;4304;53.876;10.662;2023-04-26T13:31:30;101719.19;;;11.15
8533;BMP280;4304;53.876;10.662;2023-04-26T13:33:56;101699.47;;;11.11
8533;BMP280;4304;53.876;10.662;2023-04-26T13:36:22;101735.91;;;11.26
8533;BMP280;4304;53.876;10.662;2023-04-26T13:38:47;101711.00;;;10.75
8533;BMP280;4304;53.876;10.662;2023-04-26T13:41:13;101675.97;;;10.18
8533;BMP280;4304;53.876;10.662;2023-04-26T13:43:39;101667.06;;;9.88
8533;BMP280;4304;53.876;10.662;2023-04-26T13:46:05;101644.56;;;9.72
8533;BMP280;4304;53.876;10.662;2023-04-26T13:48:30;101616.06;;;9.53
8533;BMP280;4304;53.876;10.662;2023-04-26T13:50:56;101623.47;;;9.77
8533;BMP280;4304;53.876;10.662;2023-04-26T13:53:23;101658.78;;;9.98
8533;BMP280;4304;53.876;10.662;2023-04-26T13:55:49;101633.50;;;10.02
8533;BMP280;4304;53.876;10.662;2023-04-26T13:58:14;101679.25;;;10.04
8533;BMP280;4304;53.876;10.662;2023-04-26T14:00:40;101706.78;;;10.23
8533;BMP280;4304;53.876;10.662;2023-04-26T14:03:06;101725.75;;;10.25
8533;BMP280;4304;53.876;10.662;2023-04-26T14:05:32;101738.44;;;10.31
8533;BMP280;4304;53.876;10.662;2023-04-26T14:07:58;101719.47;;;10.46
8533;BMP280;4304;53.876;10.662;2023-04-26T14:10:23;101735.34;;;10.57
8533;BMP280;4304;53.876;10.662;2023-04-26T14:12:49;101699.06;;;10.71
8533;BMP280;4304;53.876;10.662;2023-04-26T14:15:15;101710.19;;;10.58
8533;BMP280;4304;53.876;10.662;2023-04-26T14:17:41;101734.38;;;10.43
8533;BMP280;4304;53.876;10.662;2023-04-26T14:20:07;101814.63;;;10.32
8533;BMP280;4304;53.876;10.662;2023-04-26T14:22:34;101770.97;;;10.38
8533;BMP280;4304;53.876;10.662;2023-04-26T14:25:00;101807.97;;;10.60
8533;BMP280;4304;53.876;10.662;2023-04-26T14:27:25;101823.03;;;10.70
8533;BMP280;4304;53.876;10.662;2023-04-26T14:29:51;101797.19;;;10.67
8533;BMP280;4304;53.876;10.662;2023-04-26T14:32:16;101758.66;;;10.91
8533;BMP280;4304;53.876;10.662;2023-04-26T14:34:42;101744.38;;;10.99
8533;BMP280;4304;53.876;10.662;2023-04-26T14:37:08;101758.19;;;11.00